Time;durP1;ratioP1;P1;durP2;ratioP2;P2;SDS_P1;SDS_P2;PMS_P1;PMS_P2;Temp;Humidity;BMP_temperature;BMP_pressure;BME280_temperature;BME280_humidity;BME280_pressure;Samples;Min_cycle;Max_cycle;Signal;HPM_P1;HPM_P2
2021/03/20 00:01:23;;;;;;;2.83;1.38;;;;;;;-3.39;100.00;102351.28;5007927;28;20339;-78
2021/03/20 00:03:49;;;;;;;6.30;1.77;;;;;;;-3.49;100.00;102348.75;5014549;28;20479;-78
2021/03/20 00:06:18;;;;;;;4.20;1.40;;;;;;;-3.56;100.00;102350.75;5015525;28;20329;-79
2021/03/20 00:08:45;;;;;;;9.37;1.90;;;;;;;-3.48;100.00;102355.63;5012052;28;20030;-78
2021/03/20 00:11:13;;;;;;;4.47;1.57;;;;;;;-3.42;100.00;102362.16;5016975;28;20625;-78
2021/03/20 00:13:39;;;;;;;4.18;1.52;;;;;;;-3.38;100.00;102359.09;5014031;28;20364;-78
2021/03/20 00:16:05;;;;;;;4.68;1.60;;;;;;;-3.30;100.00;102362.28;5014305;28;20143;-78
2021/03/20 00:18:31;;;;;;;3.07;1.40;;;;;;;-3.36;100.00;102367.78;5012902;28;20130;-79
2021/03/20 00:20:57;;;;;;;2.53;1.23;;;;;;;-3.36;100.00;102364.34;5012526;28;20386;-78
2021/03/20 00:23:23;;;;;;;4.23;1.40;;;;;;;-3.28;100.00;102363.31;5015624;28;20022;-78
2021/03/20 00:25:50;;;;;;;5.93;1.57;;;;;;;-3.18;100.00;102363.31;5013047;28;20087;-79
2021/03/20 00:28:23;;;;;;;7.35;1.58;;;;;;;-3.10;99.54;102358.84;5015087;28;20355;-78
2021/03/20 00:31:00;;;;;;;2.67;1.33;;;;;;;-3.04;98.73;102360.22;5011355;28;20031;-78
2021/03/20 00:33:26;;;;;;;4.67;1.93;;;;;;;-3.03;98.03;102358.56;5012861;28;20026;-78
2021/03/20 00:35:53;;;;;;;4.00;1.60;;;;;;;-3.06;97.56;102351.53;5012461;28;20280;-78
2021/03/20 00:38:19;;;;;;;4.65;1.83;;;;;;;-3.05;98.09;102343.09;5012015;28;20653;-78
2021/03/20 00:40:45;;;;;;;5.67;1.60;;;;;;;-3.16;98.52;102341.31;5015334;28;20055;-77
2021/03/20 00:43:12;;;;;;;4.63;1.60;;;;;;;-3.23;98.94;102339.03;5016250;28;20022;-79
2021/03/20 00:45:37;;;;;;;4.13;1.60;;;;;;;-3.41;99.50;102340.94;5016153;28;20277;-77
2021/03/20 00:48:12;;;;;;;5.60;2.07;;;;;;;-3.53;100.00;102335.69;5011714;28;20771;-76
2021/03/20 00:50:39;;;;;;;3.50;1.58;;;;;;;-3.65;100.00;102333.75;5016173;28;20026;-78
2021/03/20 00:53:04;;;;;;;2.83;1.30;;;;;;;-3.71;100.00;102329.03;5014329;28;20029;-76
2021/03/20 00:55:30;;;;;;;4.03;1.77;;;;;;;-3.73;100.00;102320.34;5012241;28;20765;-76
2021/03/20 00:57:55;;;;;;;3.00;1.50;;;;;;;-3.61;100.00;102336.72;5012109;28;20024;-78
2021/03/20 01:00:24;;;;;;;3.93;1.57;;;;;;;-3.58;100.00;102331.84;5019657;28;20095;-78
2021/03/20 01:02:50;;;;;;;4.87;1.57;;;;;;;-3.55;100.00;102334.66;5014669;28;20503;-78
2021/03/20 01:05:17;;;;;;;3.00;1.43;;;;;;;-3.53;100.00;102335.69;5014458;28;20315;-78
2021/03/20 01:07:43;;;;;;;3.83;1.60;;;;;;;-3.53;100.00;102340.78;5013839;28;20018;-78
2021/03/20 01:10:16;;;;;;;3.40;1.50;;;;;;;-3.51;100.00;102338.38;5016424;28;20417;-76
2021/03/20 01:12:41;;;;;;;4.10;1.40;;;;;;;-3.59;100.00;102345.41;5012552;28;20264;-77
2021/03/20 01:15:08;;;;;;;4.53;1.60;;;;;;;-3.65;100.00;102341.41;5014041;28;20334;-77
2021/03/20 01:17:34;;;;;;;4.43;1.43;;;;;;;-3.72;100.00;102349.34;5014512;28;20056;-77
2021/03/20 01:19:59;;;;;;;3.80;1.80;;;;;;;-3.78;100.00;102352.25;4986533;28;20289;-77
2021/03/20 01:22:25;;;;;;;3.33;1.57;;;;;;;-3.84;100.00;102338.97;4991519;28;20038;-77
2021/03/20 01:24:51;;;;;;;6.00;1.70;;;;;;;-3.91;100.00;102339.19;4995411;28;20117;-76
2021/03/20 01:27:16;;;;;;;4.17;1.53;;;;;;;-3.88;100.00;102342.00;4990384;28;20022;-76
2021/03/20 01:29:42;;;;;;;3.17;1.60;;;;;;;-3.79;100.00;102339.34;4994219;28;20018;-76
2021/03/20 01:32:07;;;;;;;5.23;1.80;;;;;;;-3.78;100.00;102336.91;4993930;28;20160;-76
2021/03/20 01:34:33;;;;;;;4.03;1.50;;;;;;;-3.73;100.00;102340.78;4994306;28;20502;-76
2021/03/20 01:36:58;;;;;;;3.87;1.80;;;;;;;-3.79;100.00;102341.91;4989680;28;20029;-76
2021/03/20 01:39:24;;;;;;;12.60;2.00;;;;;;;-3.86;100.00;102338.84;4992242;28;20037;-77
2021/03/20 01:41:49;;;;;;;5.10;1.80;;;;;;;-4.01;100.00;102336.59;4991597;28;20364;-77
2021/03/20 01:44:20;;;;;;;5.67;1.67;;;;;;;-4.08;100.00;102335.19;4992207;28;20179;-76
2021/03/20 01:46:55;;;;;;;4.30;1.63;;;;;;;-4.12;100.00;102338.22;4992551;28;20030;-77
2021/03/20 01:49:53;;;;;;;5.13;1.88;;;;;;;-4.03;100.00;102340.69;4992789;28;20411;-76
2021/03/20 01:52:27;;;;;;;3.72;1.42;;;;;;;-4.21;100.00;102343.47;4979889;28;20030;-78
2021/03/20 01:55:09;;;;;;;3.92;1.60;;;;;;;-4.24;100.00;102347.38;4993772;28;20031;-76
2021/03/20 01:57:39;;;;;;;3.60;1.60;;;;;;;-4.15;100.00;102343.09;4989811;28;20096;-76
2021/03/20 02:00:10;;;;;;;5.22;1.98;;;;;;;-4.16;100.00;102334.53;4992128;28;20034;-76
2021/03/20 02:02:35;;;;;;;5.97;1.58;;;;;;;-4.37;100.00;102341.97;4992193;28;20505;-77
2021/03/20 02:05:01;;;;;;;4.87;1.70;;;;;;;-4.54;100.00;102340.50;4994706;28;20343;-77
2021/03/20 02:07:26;;;;;;;4.67;1.70;;;;;;;-4.66;100.00;102335.22;4991392;28;20487;-76
2021/03/20 02:09:53;;;;;;;2.70;1.50;;;;;;;-4.73;100.00;102343.97;4990377;28;20479;-76
2021/03/20 02:12:26;;;;;;;5.45;1.60;;;;;;;-4.58;100.00;102333.34;4990480;28;20499;-76
2021/03/20 02:15:12;;;;;;;6.60;1.98;;;;;;;-4.49;100.00;102323.91;4992942;28;20356;-76
2021/03/20 02:18:09;;;;;;;6.38;1.70;;;;;;;-4.46;100.00;102319.09;4990748;28;20430;-76
2021/03/20 02:20:57;;;;;;;6.68;1.80;;;;;;;-4.45;100.00;102320.91;5009140;28;20501;-76
2021/03/20 02:23:59;;;;;;;4.10;1.90;;;;;;;-4.67;100.00;102327.41;5009406;28;20375;-76
2021/03/20 02:26:46;;;;;;;3.00;1.45;;;;;;;-4.64;100.00;102328.56;5012708;28;20026;-76
2021/03/20 02:29:34;;;;;;;5.80;1.58;;;;;;;-4.52;100.00;102323.66;5009523;28;20788;-76
2021/03/20 02:32:30;;;;;;;7.00;2.10;;;;;;;-4.43;100.00;102322.81;5010259;28;20104;-76
2021/03/20 02:35:21;;;;;;;5.07;1.85;;;;;;;-4.42;100.00;102331.38;5009563;28;20033;-76
2021/03/20 02:38:06;;;;;;;9.55;3.08;;;;;;;-4.52;100.00;102318.56;5011262;28;20033;-76
2021/03/20 02:40:51;;;;;;;5.85;1.80;;;;;;;-4.44;100.00;102327.78;5012472;28;20509;-76
2021/03/20 02:43:31;;;;;;;3.83;1.45;;;;;;;-4.52;100.00;102318.56;5012674;28;20092;-76
2021/03/20 02:46:10;;;;;;;7.53;1.90;;;;;;;-4.60;100.00;102305.16;5013256;28;20037;-77
2021/03/20 02:48:44;;;;;;;4.63;1.65;;;;;;;-4.76;100.00;102318.19;5012747;28;20021;-77
2021/03/20 02:51:23;;;;;;;4.35;1.95;;;;;;;-4.74;100.00;102316.66;5008388;28;20026;-76
2021/03/20 02:54:14;;;;;;;4.18;1.83;;;;;;;-4.90;100.00;102322.81;5008795;28;20037;-77
2021/03/20 02:57:04;;;;;;;4.45;1.80;;;;;;;-4.86;100.00;102322.31;5010876;28;20025;-77
2021/03/20 02:59:35;;;;;;;3.92;1.85;;;;;;;-4.70;100.00;102316.94;5011345;28;20030;-77
2021/03/20 03:02:07;;;;;;;3.53;1.60;;;;;;;-4.63;100.00;102324.38;5012698;28;20075;-77
2021/03/20 03:04:41;;;;;;;4.10;1.55;;;;;;;-4.63;100.00;102319.25;5010062;28;20429;-76
2021/03/20 03:07:21;;;;;;;6.70;1.88;;;;;;;-4.47;100.00;102312.22;5012424;28;20076;-76
2021/03/20 03:09:55;;;;;;;4.60;1.90;;;;;;;-4.50;100.00;102312.81;5010408;28;20053;-76
2021/03/20 03:12:30;;;;;;;4.82;1.80;;;;;;;-4.60;100.00;102309.31;5011186;28;20030;-76
2021/03/20 03:15:10;;;;;;;3.80;1.60;;;;;;;-4.79;100.00;102311.91;5008057;28;20060;-76
2021/03/20 03:17:40;;;;;;;3.90;1.80;;;;;;;-4.75;100.00;102314.88;5012056;28;20120;-76
2021/03/20 03:20:13;;;;;;;6.85;2.10;;;;;;;-4.78;100.00;102311.16;4990854;28;20479;-76
2021/03/20 03:22:45;;;;;;;4.55;1.70;;;;;;;-4.79;100.00;102323.03;4992344;28;20026;-76
2021/03/20 03:25:15;;;;;;;3.95;1.63;;;;;;;-4.81;100.00;102309.25;4989332;28;20038;-76
2021/03/20 03:27:48;;;;;;;4.82;1.75;;;;;;;-4.82;100.00;102314.22;4993591;28;20030;-77
2021/03/20 03:30:16;;;;;;;4.05;1.80;;;;;;;-4.78;100.00;102318.81;4989188;28;20038;-77
2021/03/20 03:32:48;;;;;;;5.38;2.15;;;;;;;-4.70;100.00;102311.84;4990859;28;20033;-78
2021/03/20 03:35:23;;;;;;;3.55;1.58;;;;;;;-4.82;100.00;102307.44;4992413;28;20061;-77
2021/03/20 03:38:00;;;;;;;3.88;1.73;;;;;;;-4.81;100.00;102304.13;4995181;28;20155;-77
2021/03/20 03:40:49;;;;;;;5.22;1.95;;;;;;;-4.82;100.00;102306.56;4994111;28;20033;-77
2021/03/20 03:43:17;;;;;;;5.35;1.75;;;;;;;-4.82;100.00;102297.25;4993479;28;20057;-77
2021/03/20 03:45:44;;;;;;;3.53;1.80;;;;;;;-4.77;100.00;102295.97;4997110;28;20534;-77
2021/03/20 03:48:10;;;;;;;4.65;1.92;;;;;;;-4.90;100.00;102290.56;4994826;28;20158;-77
2021/03/20 03:50:38;;;;;;;4.90;1.90;;;;;;;-5.03;100.00;102306.41;4994727;28;20443;-77
2021/03/20 03:53:06;;;;;;;4.60;2.05;;;;;;;-5.15;100.00;102304.44;4997552;28;20018;-77
2021/03/20 03:55:32;;;;;;;4.45;1.92;;;;;;;-5.01;100.00;102304.00;4990828;28;20030;-77
2021/03/20 03:58:27;;;;;;;5.85;1.80;;;;;;;-4.88;100.00;102300.88;4993066;28;20026;-77
2021/03/20 04:01:08;;;;;;;7.90;2.10;;;;;;;-4.87;100.00;102306.13;4962586;28;20027;-77
2021/03/20 04:03:45;;;;;;;5.40;1.83;;;;;;;-4.96;100.00;102302.78;4993535;28;20467;-77
2021/03/20 04:06:42;;;;;;;7.28;2.22;;;;;;;-4.89;100.00;102306.75;4992047;28;20430;-77
2021/03/20 04:09:25;;;;;;;9.48;1.92;;;;;;;-4.81;100.00;102299.03;4992831;28;20483;-77
2021/03/20 04:12:02;;;;;;;6.43;2.00;;;;;;;-4.97;100.00;102290.75;4991864;28;20106;-77
2021/03/20 04:14:41;;;;;;;5.10;2.10;;;;;;;-4.89;100.00;102287.25;4994388;28;20031;-77
2021/03/20 04:18:04;;;;;;;5.05;1.85;;;;;;;-4.69;100.00;102272.81;4992114;28;20041;-77
2021/03/20 04:20:52;;;;;;;5.07;2.38;;;;;;;-4.80;100.00;102272.75;4950335;29;20051;-76
2021/03/20 04:23:23;;;;;;;3.88;1.90;;;;;;;-4.91;100.00;102276.00;4950743;29;20047;-76
2021/03/20 04:26:07;;;;;;;4.35;1.83;;;;;;;-5.00;100.00;102280.28;4984008;28;20047;-76
2021/03/20 04:28:53;;;;;;;6.82;2.40;;;;;;;-4.89;100.00;102288.91;4992219;28;20053;-77
2021/03/20 04:31:21;;;;;;;5.50;2.05;;;;;;;-4.75;100.00;102289.34;4993283;28;20030;-77
2021/03/20 04:34:06;;;;;;;5.45;2.47;;;;;;;-4.55;100.00;102290.22;4989724;28;20030;-77
2021/03/20 04:36:55;;;;;;;8.23;2.40;;;;;;;-4.38;100.00;102291.69;4994802;28;20106;-77
2021/03/20 04:39:24;;;;;;;8.48;2.40;;;;;;;-4.23;100.00;102287.91;4991105;28;20101;-77
2021/03/20 04:41:52;;;;;;;8.48;3.20;;;;;;;-4.07;100.00;102305.44;4992091;28;20093;-77
2021/03/20 04:44:19;;;;;;;5.70;2.17;;;;;;;-3.91;100.00;102298.31;4992907;28;20409;-77
2021/03/20 04:46:45;;;;;;;6.97;2.38;;;;;;;-3.76;100.00;102291.94;4992077;28;20467;-77
2021/03/20 04:49:43;;;;;;;6.57;2.08;;;;;;;-3.63;100.00;102292.25;4991185;28;20036;-77
2021/03/20 04:52:21;;;;;;;6.93;2.60;;;;;;;-3.51;100.00;102296.56;4946609;28;20034;-77
2021/03/20 04:54:47;;;;;;;8.40;2.60;;;;;;;-3.44;100.00;102298.88;4992907;28;20339;-77
2021/03/20 04:57:27;;;;;;;6.80;2.17;;;;;;;-3.37;100.00;102299.53;4992796;28;20281;-76
2021/03/20 05:00:14;;;;;;;4.90;2.03;;;;;;;-3.30;100.00;102293.22;4992415;28;20750;-77
2021/03/20 05:02:56;;;;;;;7.13;2.10;;;;;;;-3.23;100.00;102290.44;4990854;28;20117;-77
2021/03/20 05:05:44;;;;;;;7.97;2.03;;;;;;;-3.10;100.00;102292.31;4992836;28;20277;-77
2021/03/20 05:08:13;;;;;;;5.47;1.90;;;;;;;-3.09;100.00;102287.31;4997727;28;20120;-77
2021/03/20 05:10:49;;;;;;;5.50;1.80;;;;;;;-3.05;100.00;102291.91;4990656;28;20288;-77
2021/03/20 05:13:46;;;;;;;4.90;2.10;;;;;;;-3.00;100.00;102293.19;4992107;28;20328;-77
2021/03/20 05:16:17;;;;;;;8.00;2.30;;;;;;;-2.92;100.00;102282.69;4979409;28;20638;-77
2021/03/20 05:18:44;;;;;;;4.03;1.92;;;;;;;-2.91;100.00;102284.47;4992742;28;20286;-77
2021/03/20 05:21:23;;;;;;;8.20;1.97;;;;;;;-2.85;100.00;102290.09;4991299;28;20482;-77
2021/03/20 05:23:48;;;;;;;6.97;2.13;;;;;;;-2.81;100.00;102284.44;4990858;28;20621;-77
2021/03/20 05:26:14;;;;;;;4.07;1.93;;;;;;;-2.77;100.00;102289.06;4995521;28;20342;-77
2021/03/20 05:28:40;;;;;;;4.07;1.80;;;;;;;-2.72;100.00;102292.88;4995533;28;20069;-77
2021/03/20 05:31:06;;;;;;;6.90;1.70;;;;;;;-2.71;100.00;102286.97;4992612;28;20762;-77
2021/03/20 05:33:33;;;;;;;4.83;1.90;;;;;;;-2.63;100.00;102293.63;4991603;28;20023;-77
2021/03/20 05:35:59;;;;;;;7.63;2.13;;;;;;;-2.60;100.00;102287.84;4994316;28;20026;-77
2021/03/20 05:38:25;;;;;;;5.13;2.03;;;;;;;-2.59;100.00;102289.63;4991156;28;20270;-77
2021/03/20 05:41:00;;;;;;;5.67;1.83;;;;;;;-2.55;100.00;102282.28;4990952;28;20281;-77
2021/03/20 05:44:07;;;;;;;4.57;1.70;;;;;;;-2.50;100.00;102295.47;4991335;28;20487;-78
2021/03/20 05:46:37;;;;;;;5.53;1.90;;;;;;;-2.47;100.00;102295.72;4954327;28;20305;-77
2021/03/20 05:49:28;;;;;;;6.43;1.73;;;;;;;-2.45;100.00;102299.28;4984801;28;20786;-77
2021/03/20 05:52:21;;;;;;;5.83;2.00;;;;;;;-2.42;100.00;102297.00;4988682;28;20612;-77
2021/03/20 05:55:01;;;;;;;5.07;1.70;;;;;;;-2.37;100.00;102306.81;4994164;28;20282;-77
2021/03/20 05:57:53;;;;;;;8.23;2.60;;;;;;;-2.34;100.00;102307.81;4989993;28;20045;-77
2021/03/20 06:00:28;;;;;;;4.57;1.90;;;;;;;-2.31;100.00;102313.19;4989318;28;20393;-77
2021/03/20 06:03:09;;;;;;;4.70;1.80;;;;;;;-2.27;100.00;102315.25;4990803;28;20034;-77
2021/03/20 06:05:55;;;;;;;3.43;1.50;;;;;;;-2.25;100.00;102309.47;4990238;28;20305;-77
2021/03/20 06:08:26;;;;;;;4.20;1.70;;;;;;;-2.22;100.00;102311.34;4992543;28;20270;-77
2021/03/20 06:11:05;;;;;;;4.67;2.00;;;;;;;-2.22;100.00;102317.38;4989755;28;20361;-77
2021/03/20 06:13:49;;;;;;;4.57;1.87;;;;;;;-2.22;100.00;102298.53;4990094;28;20280;-77
2021/03/20 06:16:28;;;;;;;3.90;1.73;;;;;;;-2.24;100.00;102303.56;4988139;28;20312;-77
2021/03/20 06:19:20;;;;;;;4.67;1.73;;;;;;;-2.16;100.00;102314.41;5000791;28;20352;-77
2021/03/20 06:22:05;;;;;;;7.93;2.70;;;;;;;-2.06;100.00;102311.78;5006982;28;20941;-77
2021/03/20 06:25:11;;;;;;;8.30;1.67;;;;;;;-1.94;100.00;102307.63;5007842;28;20390;-77
2021/03/20 06:27:41;;;;;;;6.53;2.03;;;;;;;-1.87;100.00;102309.88;5008394;28;20303;-77
2021/03/20 06:30:28;;;;;;;5.77;2.20;;;;;;;-1.79;100.00;102313.03;5009592;28;20280;-77
2021/03/20 06:33:04;;;;;;;4.07;1.67;;;;;;;-1.63;100.00;102307.41;5007444;28;20283;-76
2021/03/20 06:35:32;;;;;;;6.70;1.87;;;;;;;-1.53;100.00;102315.03;5009355;28;20379;-77
2021/03/20 06:38:01;;;;;;;3.10;1.60;;;;;;;-1.41;100.00;102318.53;5009657;28;20454;-77
2021/03/20 06:40:49;;;;;;;5.57;1.90;;;;;;;-1.30;100.00;102316.78;5012062;28;20330;-77
2021/03/20 06:43:17;;;;;;;4.53;1.57;;;;;;;-1.23;100.00;102309.63;5012834;28;20315;-77
2021/03/20 06:45:44;;;;;;;3.93;1.60;;;;;;;-1.15;100.00;102322.16;5008889;28;20277;-77
2021/03/20 06:48:13;;;;;;;3.87;1.40;;;;;;;-1.06;100.00;102310.00;5009690;28;20283;-77
2021/03/20 06:51:00;;;;;;;5.53;1.73;;;;;;;-0.88;100.00;102314.81;5008584;28;20309;-77
2021/03/20 06:53:57;;;;;;;6.70;1.63;;;;;;;-0.78;100.00;102312.94;5007386;28;20276;-77
2021/03/20 06:56:25;;;;;;;3.60;1.53;;;;;;;-0.72;98.49;102310.81;5010796;28;20351;-76
2021/03/20 06:58:50;;;;;;;3.67;1.60;;;;;;;-0.62;99.69;102311.56;5008677;28;20367;-77
2021/03/20 07:01:22;;;;;;;4.03;1.60;;;;;;;-0.49;98.00;102315.91;5009858;28;20859;-77
2021/03/20 07:04:12;;;;;;;4.82;1.50;;;;;;;-0.27;96.43;102315.78;5007487;28;20076;-77
2021/03/20 07:07:06;;;;;;;6.33;2.13;;;;;;;-0.28;95.01;102320.81;5007995;28;20415;-77
2021/03/20 07:09:33;;;;;;;4.40;1.63;;;;;;;-0.26;93.33;102322.72;5005628;28;20303;-77
2021/03/20 07:12:13;;;;;;;3.60;1.60;;;;;;;-0.12;92.34;102328.81;5010389;28;20272;-77
2021/03/20 07:14:44;;;;;;;9.63;2.30;;;;;;;-0.07;92.13;102336.09;5012144;28;20276;-77
2021/03/20 07:17:23;;;;;;;4.60;1.40;;;;;;;0.19;93.57;102337.03;5012965;28;20276;-77
2021/03/20 07:19:53;;;;;;;5.13;1.73;;;;;;;0.34;91.54;102335.50;5012130;28;20308;-77
2021/03/20 07:22:29;;;;;;;4.53;1.63;;;;;;;0.33;90.23;102337.97;5014251;28;20296;-77
2021/03/20 07:24:54;;;;;;;6.03;1.67;;;;;;;0.36;89.18;102346.78;5014058;28;20371;-77
2021/03/20 07:27:29;;;;;;;4.90;1.60;;;;;;;0.29;89.16;102344.59;5013719;28;20383;-77
2021/03/20 07:29:57;;;;;;;5.40;1.73;;;;;;;0.34;89.43;102345.78;5014674;28;20065;-77
2021/03/20 07:32:22;;;;;;;5.47;1.50;;;;;;;0.42;89.55;102352.38;5013320;28;20342;-77
2021/03/20 07:34:51;;;;;;;4.50;1.67;;;;;;;0.57;89.77;102349.94;5013638;28;20753;-77
2021/03/20 07:37:19;;;;;;;4.27;1.50;;;;;;;0.64;87.98;102353.84;5016008;28;20030;-77
2021/03/20 07:39:53;;;;;;;5.90;1.80;;;;;;;0.62;90.50;102358.00;5008354;28;20292;-77
2021/03/20 07:42:31;;;;;;;3.13;1.27;;;;;;;0.70;87.61;102355.16;5012128;28;20333;-77
2021/03/20 07:45:06;;;;;;;3.83;1.57;;;;;;;0.79;87.99;102362.59;5014610;28;20346;-77
2021/03/20 07:47:36;;;;;;;5.63;1.53;;;;;;;0.94;87.60;102358.47;5012553;28;20284;-77
2021/03/20 07:50:48;;;;;;;4.77;1.40;;;;;;;0.98;85.08;102357.91;5012717;28;20280;-77
2021/03/20 07:53:17;;;;;;;5.10;1.80;;;;;;;1.03;86.21;102366.84;5008678;28;20276;-77
2021/03/20 07:56:05;;;;;;;4.77;1.30;;;;;;;0.95;85.17;102361.94;5012611;28;20289;-77
2021/03/20 07:58:38;;;;;;;4.53;1.40;;;;;;;0.92;85.17;102357.50;5013433;28;20272;-77
2021/03/20 08:01:14;;;;;;;4.77;1.80;;;;;;;0.93;85.86;102353.22;5011571;28;20292;-77
2021/03/20 08:03:58;;;;;;;4.00;1.73;;;;;;;1.37;85.21;102353.59;5013002;28;20808;-77
2021/03/20 08:06:25;;;;;;;5.10;1.40;;;;;;;1.27;81.37;102351.22;5013483;28;20280;-77
2021/03/20 08:09:12;;;;;;;3.70;1.40;;;;;;;1.43;82.04;102341.09;5012312;28;20291;-77
2021/03/20 08:11:38;;;;;;;3.97;1.67;;;;;;;1.40;81.26;102339.22;5013061;28;20272;-77
2021/03/20 08:14:38;;;;;;;5.57;1.43;;;;;;;1.61;79.72;102342.31;5012011;28;20294;-77
2021/03/20 08:17:05;;;;;;;4.03;1.70;;;;;;;1.91;79.84;102339.88;4998962;28;20029;-77
2021/03/20 08:19:32;;;;;;;4.33;1.43;;;;;;;1.47;80.03;102335.38;5015809;28;20339;-77
2021/03/20 08:22:04;;;;;;;3.50;1.60;;;;;;;1.63;83.23;102343.28;5011875;28;20288;-77
2021/03/20 08:24:33;;;;;;;7.85;1.70;;;;;;;1.87;81.34;102343.06;5012082;28;20765;-77
2021/03/20 08:27:11;;;;;;;3.97;1.47;;;;;;;2.48;80.01;102352.03;5011856;28;20092;-78
2021/03/20 08:30:05;;;;;;;4.07;1.77;;;;;;;2.58;79.47;102355.25;5011241;28;20284;-77
2021/03/20 08:33:06;;;;;;;3.80;1.43;;;;;;;2.89;76.39;102350.22;5010235;28;20336;-77
2021/03/20 08:35:56;;;;;;;3.33;1.13;;;;;;;2.32;75.75;102345.94;5012404;28;20493;-77
2021/03/20 08:38:54;;;;;;;4.07;1.30;;;;;;;2.37;76.14;102347.88;5010419;28;20352;-77
2021/03/20 08:41:41;;;;;;;2.87;1.40;;;;;;;2.68;75.22;102354.13;5009746;28;20769;-77
2021/03/20 08:44:07;;;;;;;4.10;1.30;;;;;;;2.58;75.00;102355.25;5010291;28;20741;-78
2021/03/20 08:46:52;;;;;;;3.80;1.40;;;;;;;2.49;74.68;102351.22;5012859;28;20598;-77
2021/03/20 08:49:36;;;;;;;7.17;1.60;;;;;;;2.65;75.77;102356.50;5011778;28;20037;-77
2021/03/20 08:52:38;;;;;;;2.93;1.37;;;;;;;2.71;74.09;102351.72;5010467;28;20288;-77
2021/03/20 08:55:22;;;;;;;2.87;1.20;;;;;;;2.68;72.22;102337.75;5009828;28;20645;-77
2021/03/20 08:58:25;;;;;;;3.97;1.30;;;;;;;2.70;74.08;102329.28;5010956;28;20277;-78
2021/03/20 09:00:56;;;;;;;4.67;1.73;;;;;;;2.77;72.20;102323.66;5010853;28;20308;-78
2021/03/20 09:03:31;;;;;;;3.27;1.33;;;;;;;2.45;72.95;102331.19;5011271;28;20280;-77
2021/03/20 09:06:16;;;;;;;3.50;1.27;;;;;;;2.82;74.27;102327.41;5011807;28;20284;-77
2021/03/20 09:08:43;;;;;;;3.07;1.40;;;;;;;3.11;71.80;102325.63;5012489;28;20289;-78
2021/03/20 09:11:35;;;;;;;3.53;1.33;;;;;;;2.81;72.06;102325.63;5014306;28;20281;-78
2021/03/20 09:14:19;;;;;;;5.03;1.50;;;;;;;3.11;68.78;102331.69;5010573;28;20288;-77
2021/03/20 09:17:00;;;;;;;5.07;1.23;;;;;;;3.89;66.87;102330.94;5007421;28;20404;-78
2021/03/20 09:19:40;;;;;;;5.20;1.43;;;;;;;4.17;66.60;102316.91;5013765;28;20296;-78
2021/03/20 09:22:13;;;;;;;3.50;1.17;;;;;;;4.13;65.45;102309.78;5003524;28;20030;-78
2021/03/20 09:25:23;;;;;;;2.57;1.07;;;;;;;3.46;64.07;102317.31;5005125;28;20499;-78
2021/03/20 09:28:01;;;;;;;4.63;1.77;;;;;;;3.65;62.78;102317.53;5004987;28;20485;-77
2021/03/20 09:30:45;;;;;;;5.10;1.17;;;;;;;5.36;60.13;102317.84;5005056;28;20087;-77
2021/03/20 09:33:19;;;;;;;3.17;1.00;;;;;;;5.57;62.04;102313.66;5004210;28;20455;-77
2021/03/20 09:35:51;;;;;;;2.97;1.00;;;;;;;6.10;57.48;102324.00;5012606;28;20030;-77
2021/03/20 09:38:35;;;;;;;3.28;1.00;;;;;;;4.91;57.36;102322.50;5011514;28;20030;-77
2021/03/20 09:41:14;;;;;;;3.33;1.00;;;;;;;5.50;60.20;102324.56;5005512;28;20046;-78
2021/03/20 09:43:43;;;;;;;3.13;1.30;;;;;;;5.54;56.94;102323.88;4988749;28;20466;-78
2021/03/20 09:46:40;;;;;;;4.40;1.00;;;;;;;5.43;55.21;102325.06;5006233;28;20088;-77
2021/03/20 09:49:06;;;;;;;3.00;1.10;;;;;;;4.70;57.02;102327.47;5000030;28;20021;-78
2021/03/20 09:51:49;;;;;;;4.23;1.23;;;;;;;4.54;55.93;102335.28;4996626;28;20037;-78
2021/03/20 09:54:39;;;;;;;4.33;1.30;;;;;;;4.15;54.85;102334.06;5007208;28;20033;-78
2021/03/20 09:59:42;;;;;;;2.60;1.00;;;;;;;4.57;55.71;102320.75;5011359;28;20498;-78
2021/03/20 10:02:11;;;;;;;2.80;1.13;;;;;;;4.81;54.07;102315.06;5004044;28;20048;-78
2021/03/20 10:04:51;;;;;;;6.00;1.27;;;;;;;4.85;57.55;102309.25;5007484;28;20087;-77
2021/03/20 10:07:20;;;;;;;5.07;1.30;;;;;;;4.47;53.18;102325.38;5005686;28;20121;-77
2021/03/20 10:10:10;;;;;;;3.07;1.20;;;;;;;4.53;52.86;102313.66;5014174;28;20029;-77
2021/03/20 10:12:46;;;;;;;7.03;1.50;;;;;;;4.81;51.09;102313.38;5008703;28;20071;-77
2021/03/20 10:15:13;;;;;;;3.73;1.33;;;;;;;5.00;52.94;102308.31;4999186;28;20099;-77
2021/03/20 10:18:12;;;;;;;3.57;1.47;;;;;;;5.15;54.15;102313.34;5014528;28;20044;-77
2021/03/20 10:20:45;;;;;;;4.47;1.43;;;;;;;4.58;53.41;102309.59;4981461;28;20041;-77
2021/03/20 10:23:19;;;;;;;4.13;1.20;;;;;;;4.69;55.78;102304.97;4977418;28;20038;-76
2021/03/20 10:25:55;;;;;;;2.97;1.20;;;;;;;5.13;55.37;102304.63;4989775;28;20137;-77
2021/03/20 10:28:29;;;;;;;3.23;1.27;;;;;;;5.10;55.71;102308.78;4995476;28;20406;-77
2021/03/20 10:30:59;;;;;;;3.80;1.23;;;;;;;5.06;54.18;102312.91;4982220;28;20049;-77
2021/03/20 10:33:36;;;;;;;3.60;1.10;;;;;;;5.21;55.09;102308.50;4990292;28;20026;-77
2021/03/20 10:36:14;;;;;;;4.23;1.17;;;;;;;4.96;56.78;102300.28;4981342;28;20089;-77
2021/03/20 10:38:40;;;;;;;6.63;1.30;;;;;;;4.94;55.30;102296.72;4987249;28;20049;-77
2021/03/20 10:41:33;;;;;;;2.57;1.00;;;;;;;5.15;55.47;102292.63;4985736;28;20026;-77
2021/03/20 10:44:13;;;;;;;3.43;1.10;;;;;;;5.21;56.03;102295.53;4975971;28;20069;-77
2021/03/20 10:46:40;;;;;;;4.73;1.43;;;;;;;5.42;52.61;102286.97;4982110;28;20041;-77
2021/03/20 10:49:16;;;;;;;4.53;1.10;;;;;;;5.54;54.84;102283.25;4986901;28;20117;-77
2021/03/20 10:51:43;;;;;;;3.37;1.30;;;;;;;5.42;54.36;102272.31;4987868;28;20042;-78
2021/03/20 10:54:21;;;;;;;3.37;1.10;;;;;;;5.86;54.91;102268.31;4984930;28;20359;-77
2021/03/20 10:56:52;;;;;;;2.97;1.30;;;;;;;5.00;54.85;102261.66;4985772;28;20035;-77
2021/03/20 10:59:38;;;;;;;3.27;1.27;;;;;;;5.02;55.31;102264.31;4985051;28;20076;-77
2021/03/20 11:02:23;;;;;;;2.37;1.10;;;;;;;5.20;57.00;102266.88;4984026;28;20041;-77
2021/03/20 11:04:51;;;;;;;3.53;1.13;;;;;;;5.38;58.57;102264.31;4984743;28;20036;-77
2021/03/20 11:07:21;;;;;;;3.97;1.33;;;;;;;5.16;56.74;102263.28;4984931;28;20057;-77
2021/03/20 11:09:47;;;;;;;3.77;1.30;;;;;;;5.52;57.95;102252.88;4984894;28;20401;-77
2021/03/20 11:12:22;;;;;;;4.03;1.47;;;;;;;5.72;55.79;102251.22;4983699;28;20025;-77
2021/03/20 11:14:51;;;;;;;3.90;1.57;;;;;;;5.16;57.33;102252.91;4968377;28;20034;-77
2021/03/20 11:17:23;;;;;;;4.20;1.60;;;;;;;5.20;59.11;102236.66;4982979;28;20495;-77
2021/03/20 11:19:59;;;;;;;4.50;1.52;;;;;;;5.07;59.49;102236.00;4985510;28;20045;-77
2021/03/20 11:22:34;;;;;;;4.00;1.43;;;;;;;5.39;60.17;102242.75;4984657;28;20104;-77
2021/03/20 11:25:17;;;;;;;3.70;1.73;;;;;;;5.10;59.66;102237.06;4985849;28;20038;-77
2021/03/20 11:27:55;;;;;;;5.13;1.90;;;;;;;5.37;61.06;102236.59;4985672;28;20121;-77
2021/03/20 11:30:27;;;;;;;5.27;1.83;;;;;;;5.35;59.92;102233.94;4985372;28;20037;-77
2021/03/20 11:32:53;;;;;;;5.97;1.65;;;;;;;5.68;58.99;102234.59;4985266;28;20026;-77
2021/03/20 11:35:25;;;;;;;4.20;2.00;;;;;;;6.05;60.21;102236.28;4986649;28;20053;-77
2021/03/20 11:37:52;;;;;;;4.20;1.83;;;;;;;5.32;60.51;102217.31;4983926;28;20127;-77
2021/03/20 11:40:23;;;;;;;3.90;1.80;;;;;;;5.61;62.45;102229.97;4991565;28;20026;-77
2021/03/20 11:42:53;;;;;;;4.13;1.70;;;;;;;5.78;61.43;102210.84;4983835;28;20442;-77
2021/03/20 11:45:26;;;;;;;5.33;1.80;;;;;;;6.17;62.29;102201.38;4985129;28;20034;-77
2021/03/20 11:47:54;;;;;;;4.43;1.80;;;;;;;6.14;59.95;102200.34;4983646;28;20018;-77
2021/03/20 11:50:30;;;;;;;5.77;2.00;;;;;;;6.02;61.76;102199.81;4987822;28;20018;-77
2021/03/20 11:53:05;;;;;;;5.70;1.80;;;;;;;5.95;63.22;102190.00;4983851;28;20117;-77
2021/03/20 11:55:38;;;;;;;6.83;2.30;;;;;;;6.40;62.50;102197.16;4988120;28;20041;-77
2021/03/20 11:58:14;;;;;;;4.70;2.10;;;;;;;6.69;63.20;102182.81;4989869;28;20179;-77
2021/03/20 12:00:47;;;;;;;5.10;2.30;;;;;;;6.20;61.93;102185.06;4988643;28;20026;-77
2021/03/20 12:03:21;;;;;;;;;;;;;;;6.25;62.46;102178.34;4984869;28;20040;-79
2021/03/20 12:05:48;;;;;;;5.07;2.00;;;;;;;5.92;63.29;102172.56;4992877;28;19913;-77
2021/03/20 12:08:36;;;;;;;5.43;1.80;;;;;;;6.22;62.08;102165.22;4988317;28;20173;-78